Time;durP1;ratioP1;P1;durP2;ratioP2;P2;SDS_P1;SDS_P2;PMS_P1;PMS_P2;Temp;Humidity;BMP_temperature;BMP_pressure;BME280_temperature;BME280_humidity;BME280_pressure;Samples;Min_cycle;Max_cycle;Signal;HPM_P1;HPM_P2
2022/01/30 00:02:18;;;;;;;15.98;3.83;;;7.50;83.10;;;;;;6011270;23;92523;-67
2022/01/30 00:04:45;;;;;;;20.90;4.85;;;7.50;83.10;;;;;;6038065;23;91593;-67
2022/01/30 00:07:12;;;;;;;15.95;2.90;;;7.40;82.90;;;;;;6037067;23;93019;-67
2022/01/30 00:09:39;;;;;;;17.60;2.90;;;7.40;83.10;;;;;;6037016;23;92765;-67
2022/01/30 00:12:07;;;;;;;15.43;3.88;;;7.40;82.90;;;;;;6009767;23;94752;-67
2022/01/30 00:14:36;;;;;;;16.52;3.78;;;7.30;82.30;;;;;;6037259;23;92398;-67
2022/01/30 00:17:11;;;;;;;20.30;3.20;;;7.30;82.50;;;;;;6036988;23;92897;-67
2022/01/30 00:19:51;;;;;;;14.45;2.80;;;7.30;82.60;;;;;;6037004;23;92407;-67
2022/01/30 00:27:46;;;;;;;17.60;3.55;;;7.40;81.60;;;;;;6036992;23;93108;-67
2022/01/30 00:30:15;;;;;;;20.50;4.28;;;7.40;80.70;;;;;;6037061;23;93001;-67
2022/01/30 00:32:42;;;;;;;17.38;3.67;;;7.50;80.20;;;;;;6037266;23;92399;-67
2022/01/30 00:35:33;;;;;;;24.67;3.40;;;7.50;79.90;;;;;;6037179;23;92441;-69
2022/01/30 00:38:01;;;;;;;18.17;3.67;;;7.60;79.50;;;;;;6035450;23;95368;-69
2022/01/30 00:40:35;;;;;;;14.10;3.42;;;7.60;81.40;;;;;;6011206;23;96424;-69
2022/01/30 00:43:04;;;;;;;8.85;2.80;;;7.50;82.80;;;;;;6011120;23;92502;-66
2022/01/30 00:45:32;;;;;;;17.63;3.75;;;7.40;82.10;;;;;;6036237;23;92429;-67
2022/01/30 00:48:00;;;;;;;20.10;3.22;;;7.30;85.00;;;;;;6036190;23;111237;-67
2022/01/30 00:50:27;;;;;;;15.30;3.40;;;7.10;85.00;;;;;;6010536;23;95233;-67
2022/01/30 00:52:55;;;;;;;16.48;3.03;;;7.10;85.40;;;;;;6011178;23;92486;-67
2022/01/30 00:55:24;;;;;;;14.90;3.10;;;7.10;85.10;;;;;;6011564;23;92235;-67
2022/01/30 00:57:52;;;;;;;15.60;3.90;;;7.00;86.00;;;;;;6036356;23;94355;-67
2022/01/30 01:00:20;;;;;;;18.33;3.38;;;6.90;87.50;;;;;;6010192;23;93983;-69
2022/01/30 01:02:47;;;;;;;27.40;3.72;;;6.80;87.50;;;;;;6009613;23;94836;-67
2022/01/30 01:05:17;;;;;;;14.90;3.25;;;6.70;87.20;;;;;;6059502;23;92741;-67
2022/01/30 01:07:47;;;;;;;16.63;3.38;;;6.70;88.50;;;;;;6036801;23;93095;-67
2022/01/30 01:23:53;;;;;;;20.45;3.47;;;6.40;87.00;;;;;;6037164;23;92845;-69
2022/01/30 01:26:22;;;;;;;16.23;3.00;;;6.40;85.70;;;;;;6010641;23;92387;-67
2022/01/30 01:28:51;;;;;;;17.52;3.25;;;6.40;84.50;;;;;;6057401;23;96443;-67
2022/01/30 01:31:19;;;;;;;23.30;3.83;;;6.40;85.30;;;;;;6010174;23;96541;-67
2022/01/30 01:36:19;;;;;;;22.35;3.90;;;6.50;83.80;;;;;;6036631;23;92422;-69
2022/01/30 01:38:46;;;;;;;19.75;3.78;;;6.50;83.90;;;;;;6010887;23;94773;-69
2022/01/30 01:41:17;;;;;;;20.23;3.45;;;6.50;83.60;;;;;;6010519;23;93964;-69
2022/01/30 01:43:45;;;;;;;22.95;3.88;;;6.60;82.80;;;;;;6036958;23;92380;-67
2022/01/30 01:46:17;;;;;;;18.58;3.03;;;6.70;82.20;;;;;;6011552;23;91633;-67
2022/01/30 01:48:46;;;;;;;16.60;3.33;;;6.70;81.30;;;;;;6011097;23;95579;-67
2022/01/30 01:51:19;;;;;;;15.73;3.22;;;6.80;80.80;;;;;;6010631;23;94085;-67
2022/01/30 01:53:53;;;;;;;16.67;3.07;;;6.90;79.90;;;;;;6009744;23;94877;-67
2022/01/30 01:56:20;;;;;;;16.83;3.28;;;7.10;80.10;;;;;;6010664;23;92505;-67
2022/01/30 01:58:52;;;;;;;16.10;4.03;;;7.10;80.90;;;;;;6010874;23;95586;-67
2022/01/30 02:01:52;;;;;;;16.60;2.90;;;7.20;79.00;;;;;;6024368;23;93632;-69
2022/01/30 02:04:20;;;;;;;21.35;3.67;;;7.30;78.50;;;;;;6010354;23;92376;-69
2022/01/30 02:07:00;;;;;;;20.73;3.85;;;7.20;79.60;;;;;;6037130;23;92844;-69
2022/01/30 02:09:31;;;;;;;22.48;3.55;;;7.30;80.50;;;;;;6010511;23;95888;-69
2022/01/30 02:11:58;;;;;;;23.67;3.13;;;7.30;78.60;;;;;;6036879;23;93817;-69
2022/01/30 02:14:37;;;;;;;20.90;4.18;;;7.30;79.70;;;;;;6010417;23;92466;-69
2022/01/30 02:25:36;;;;;;;20.70;4.47;;;7.20;79.40;;;;;;6010871;23;92534;-69
2022/01/30 02:28:09;;;;;;;17.35;3.28;;;7.10;78.50;;;;;;6011093;23;92462;-69
2022/01/30 02:30:40;;;;;;;23.30;4.20;;;7.20;79.40;;;;;;6010564;23;95833;-69
2022/01/30 02:33:08;;;;;;;17.73;4.13;;;7.20;78.60;;;;;;6010834;23;95425;-69
2022/01/30 02:35:35;;;;;;;29.55;4.18;;;7.30;79.40;;;;;;6058756;23;92520;-69
2022/01/30 02:38:02;;;;;;;20.17;4.47;;;7.30;79.10;;;;;;6011154;23;91714;-69
2022/01/30 02:40:34;;;;;;;30.48;5.20;;;7.30;79.90;;;;;;6010386;23;94237;-69
2022/01/30 02:43:02;;;;;;;30.45;5.90;;;7.40;79.90;;;;;;6010571;23;93058;-69
2022/01/30 02:45:32;;;;;;;25.95;4.70;;;7.40;80.70;;;;;;6008623;23;94829;-69
2022/01/30 02:48:15;;;;;;;29.77;4.93;;;7.40;81.60;;;;;;6010912;23;92466;-69
2022/01/30 02:53:15;;;;;;;19.75;4.18;;;7.30;83.00;;;;;;6010833;23;95225;-69
2022/01/30 02:55:42;;;;;;;35.00;5.72;;;7.30;83.60;;;;;;6035445;23;100665;-69
2022/01/30 02:58:09;;;;;;;13.60;2.90;;;7.30;82.50;;;;;;6010467;23;92533;-69
2022/01/30 03:00:37;;;;;;;21.38;4.25;;;7.20;82.20;;;;;;6004811;23;95130;-69
2022/01/30 03:03:04;;;;;;;17.95;3.97;;;7.20;81.80;;;;;;6005962;23;95713;-69
2022/01/30 03:05:31;;;;;;;24.02;5.13;;;7.20;80.70;;;;;;6005475;23;92394;-69
2022/01/30 03:07:58;;;;;;;20.88;4.50;;;7.10;81.10;;;;;;6005572;23;92463;-69
2022/01/30 03:10:25;;;;;;;27.10;4.30;;;7.10;81.10;;;;;;6004806;23;98125;-67
2022/01/30 03:12:52;;;;;;;26.40;5.25;;;7.10;81.60;;;;;;6008224;23;96233;-67
2022/01/30 03:15:19;;;;;;;29.27;5.57;;;7.00;81.80;;;;;;6007184;23;92996;-67
2022/01/30 03:17:46;;;;;;;17.67;4.30;;;7.00;81.40;;;;;;6006872;23;92850;-67
2022/01/30 03:20:13;;;;;;;23.25;4.80;;;7.00;82.30;;;;;;6006766;23;95763;-67
2022/01/30 03:22:40;;;;;;;30.13;4.22;;;7.00;81.50;;;;;;6006384;23;95169;-69
2022/01/30 03:25:07;;;;;;;26.13;5.82;;;7.10;80.90;;;;;;6008570;23;92291;-69
2022/01/30 03:27:53;;;;;;;41.08;6.10;;;7.10;80.60;;;;;;6007300;23;91723;-69
2022/01/30 03:30:28;;;;;;;27.75;5.65;;;7.30;80.30;;;;;;6008609;23;93019;-69
2022/01/30 03:33:08;;;;;;;25.95;4.30;;;7.30;79.90;;;;;;6006775;23;95276;-69
2022/01/30 03:35:35;;;;;;;22.80;5.03;;;7.30;78.90;;;;;;6005259;23;94887;-69
2022/01/30 03:38:03;;;;;;;26.20;5.35;;;7.40;79.50;;;;;;6007066;23;92837;-69
2022/01/30 03:40:31;;;;;;;13.82;4.60;;;7.50;79.00;;;;;;6006337;23;95610;-69
2022/01/30 03:43:00;;;;;;;29.63;5.20;;;7.50;77.20;;;;;;6006445;23;94902;-69
2022/01/30 03:45:27;;;;;;;29.88;5.20;;;7.60;78.10;;;;;;6006690;23;92422;-69
2022/01/30 03:47:58;;;;;;;24.85;4.70;;;7.60;77.20;;;;;;6008556;23;92435;-69
2022/01/30 03:50:38;;;;;;;28.92;4.75;;;7.60;77.40;;;;;;6006189;23;94188;-69
2022/01/30 03:53:05;;;;;;;25.23;5.10;;;7.60;78.30;;;;;;6008887;23;92892;-69
2022/01/30 03:55:34;;;;;;;30.20;4.80;;;7.70;77.50;;;;;;6008274;23;92489;-69
2022/01/30 03:58:02;;;;;;;21.10;3.72;;;7.70;77.60;;;;;;6006578;23;92473;-69
2022/01/30 04:00:30;;;;;;;24.05;4.60;;;7.80;77.80;;;;;;6004570;23;97746;-69
2022/01/30 04:03:02;;;;;;;15.70;3.88;;;7.70;77.10;;;;;;5983985;23;96844;-69
2022/01/30 04:05:29;;;;;;;24.23;4.70;;;7.80;76.90;;;;;;6006236;23;92392;-69
2022/01/30 04:08:02;;;;;;;28.20;4.47;;;7.70;78.40;;;;;;6008720;23;92848;-66
2022/01/30 04:10:36;;;;;;;24.13;4.97;;;7.70;78.70;;;;;;6054769;23;95444;-66
2022/01/30 04:13:19;;;;;;;20.73;4.97;;;7.50;79.20;;;;;;6006773;23;95253;-67
2022/01/30 04:16:05;;;;;;;28.50;4.88;;;7.30;89.10;;;;;;6008731;23;92809;-67
2022/01/30 04:18:57;;;;;;;35.05;6.20;;;6.80;92.70;;;;;;6055585;23;92012;-67
2022/01/30 04:21:45;;;;;;;21.98;4.68;;;6.60;93.30;;;;;;5996885;23;92936;-67
2022/01/30 04:24:32;;;;;;;20.45;4.03;;;6.40;92.80;;;;;;5992368;23;93047;-67
2022/01/30 04:27:34;;;;;;;33.03;5.55;;;6.40;93.50;;;;;;5919560;23;94969;-67
2022/01/30 04:30:23;;;;;;;33.58;6.18;;;6.30;92.80;;;;;;6002167;23;92484;-67
2022/01/30 04:33:08;;;;;;;25.05;4.78;;;6.30;92.30;;;;;;6008068;23;94277;-67
2022/01/30 04:35:57;;;;;;;34.42;5.50;;;6.20;92.60;;;;;;6007983;23;92471;-67
2022/01/30 04:42:07;;;;;;;32.65;6.55;;;6.20;91.10;;;;;;5988777;23;92405;-67
2022/01/30 04:57:24;;;;;;;27.90;5.47;;;6.20;90.60;;;;;;6000777;23;95812;-67
2022/01/30 05:05:58;;;;;;;39.90;7.95;;;6.30;90.10;;;;;;6006154;23;92568;-69
2022/01/30 05:08:43;;;;;;;28.05;5.68;;;6.40;90.10;;;;;;6054729;23;95289;-69
2022/01/30 05:11:18;;;;;;;30.40;5.20;;;6.50;88.70;;;;;;6054524;23;95048;-69
2022/01/30 05:13:58;;;;;;;34.80;6.25;;;6.50;89.00;;;;;;5985256;23;92899;-69
2022/01/30 05:16:43;;;;;;;33.03;6.13;;;6.60;87.90;;;;;;6008666;23;92087;-69
2022/01/30 05:19:30;;;;;;;29.70;5.63;;;6.60;86.20;;;;;;6008002;23;94385;-69
2022/01/30 05:22:10;;;;;;;33.25;6.55;;;6.60;86.80;;;;;;6007842;23;92833;-69
2022/01/30 05:24:47;;;;;;;31.70;5.82;;;6.60;85.90;;;;;;6005075;23;94872;-69
2022/01/30 05:27:23;;;;;;;29.35;6.70;;;6.70;84.80;;;;;;6006588;23;92494;-69
2022/01/30 05:30:09;;;;;;;33.10;6.28;;;6.70;83.70;;;;;;6006747;23;92591;-67
2022/01/30 05:32:59;;;;;;;38.00;7.80;;;6.70;82.90;;;;;;6006839;23;93660;-66
2022/01/30 05:35:55;;;;;;;30.17;5.95;;;6.70;83.10;;;;;;5995307;23;92575;-67
2022/01/30 05:38:23;;;;;;;35.67;6.53;;;6.70;84.00;;;;;;6008242;23;92413;-67
2022/01/30 05:41:09;;;;;;;30.33;6.10;;;6.80;83.40;;;;;;6007760;23;93459;-67
2022/01/30 05:43:46;;;;;;;35.25;6.43;;;6.80;83.50;;;;;;6006942;23;95182;-67
2022/01/30 05:46:33;;;;;;;30.40;6.28;;;7.00;81.10;;;;;;6054910;23;92504;-67
2022/01/30 05:49:32;;;;;;;41.28;6.82;;;6.90;81.30;;;;;;5996539;23;92434;-67
2022/01/30 05:52:31;;;;;;;40.25;6.63;;;7.00;82.60;;;;;;6004651;23;97810;-66
2022/01/30 05:55:15;;;;;;;33.58;6.20;;;7.00;80.60;;;;;;6006273;23;97609;-66
2022/01/30 05:57:42;;;;;;;21.55;4.53;;;7.00;80.90;;;;;;6054495;23;92523;-67
2022/01/30 06:00:13;;;;;;;25.27;5.68;;;7.00;80.40;;;;;;6005631;23;92521;-67
2022/01/30 06:02:52;;;;;;;29.05;4.70;;;7.00;79.70;;;;;;6054546;23;95882;-66
2022/01/30 06:05:22;;;;;;;38.03;7.63;;;6.90;81.10;;;;;;6007370;23;93850;-69
2022/01/30 06:07:54;;;;;;;29.50;6.55;;;6.90;82.60;;;;;;6054274;23;92502;-69
2022/01/30 06:10:27;;;;;;;32.00;7.25;;;6.90;82.50;;;;;;6008411;23;91940;-67
2022/01/30 06:12:55;;;;;;;17.35;3.92;;;6.80;91.10;;;;;;6054007;23;95311;-67
2022/01/30 06:15:22;;;;;;;19.77;5.07;;;6.60;90.90;;;;;;6005926;23;95196;-67
2022/01/30 06:17:55;;;;;;;29.67;5.47;;;6.20;91.10;;;;;;6004452;23;95320;-66
2022/01/30 06:20:41;;;;;;;25.95;6.03;;;6.20;91.20;;;;;;6008059;23;92454;-67
2022/01/30 06:23:26;;;;;;;25.30;5.40;;;5.90;91.30;;;;;;6007840;23;92587;-66
2022/01/30 06:26:12;;;;;;;24.05;5.88;;;5.80;91.50;;;;;;6007192;23;92585;-67
2022/01/30 06:29:05;;;;;;;28.42;5.72;;;5.70;90.10;;;;;;5995512;23;92770;-69
2022/01/30 06:31:50;;;;;;;31.83;5.07;;;5.60;90.90;;;;;;6007858;23;92404;-66
2022/01/30 06:34:36;;;;;;;25.98;5.63;;;5.60;90.80;;;;;;6007541;23;92946;-66
2022/01/30 06:37:21;;;;;;;38.65;6.07;;;5.50;90.50;;;;;;6008014;23;92785;-66
2022/01/30 06:40:09;;;;;;;30.55;6.00;;;5.60;90.50;;;;;;6006887;23;93548;-69
2022/01/30 06:42:54;;;;;;;24.10;5.95;;;5.50;90.40;;;;;;6007573;23;92335;-69
2022/01/30 06:45:42;;;;;;;28.20;5.35;;;5.50;89.50;;;;;;6007048;23;95057;-69
2022/01/30 06:48:27;;;;;;;28.75;6.10;;;5.60;89.60;;;;;;6008555;23;94865;-69
2022/01/30 06:51:06;;;;;;;34.15;5.95;;;5.70;88.70;;;;;;6008402;23;92478;-69
2022/01/30 06:53:53;;;;;;;33.00;5.05;;;5.70;88.90;;;;;;6006519;23;93019;-69
2022/01/30 06:56:39;;;;;;;34.22;6.22;;;5.70;89.30;;;;;;6008757;23;92774;-69
2022/01/30 06:59:25;;;;;;;34.03;7.22;;;5.80;89.40;;;;;;6011749;23;92989;-68
2022/01/30 07:02:12;;;;;;;35.08;7.38;;;5.90;87.40;;;;;;6015842;23;92426;-69
2022/01/30 07:04:57;;;;;;;39.08;7.22;;;5.90;87.50;;;;;;6037843;23;91576;-69
2022/01/30 07:07:32;;;;;;;33.83;5.30;;;6.10;86.10;;;;;;6012124;23;95538;-69
2022/01/30 07:10:00;;;;;;;28.05;5.78;;;6.20;83.30;;;;;;6037324;23;92582;-69
2022/01/30 07:12:27;;;;;;;27.05;5.88;;;6.20;82.00;;;;;;6036255;23;94817;-69
2022/01/30 07:14:54;;;;;;;33.55;6.43;;;6.30;81.20;;;;;;6011696;23;92342;-69
2022/01/30 07:17:21;;;;;;;33.22;6.00;;;6.50;78.90;;;;;;6037404;23;93031;-69
2022/01/30 07:19:48;;;;;;;27.15;5.07;;;6.50;78.10;;;;;;6011581;23;93916;-69
2022/01/30 07:22:15;;;;;;;30.30;6.15;;;6.50;78.30;;;;;;6037267;23;92447;-69
2022/01/30 07:24:42;;;;;;;20.33;4.53;;;6.50;77.40;;;;;;6037446;23;92454;-66
2022/01/30 07:27:09;;;;;;;34.10;6.30;;;6.60;77.10;;;;;;6037195;23;93027;-67
2022/01/30 07:29:36;;;;;;;27.75;5.03;;;6.60;77.90;;;;;;6037852;23;92724;-67
2022/01/30 07:32:03;;;;;;;36.97;7.00;;;6.60;77.20;;;;;;6037326;23;92508;-67
2022/01/30 07:34:30;;;;;;;26.85;6.03;;;6.70;76.60;;;;;;6037307;23;97745;-67
2022/01/30 07:36:58;;;;;;;21.23;5.18;;;6.70;75.10;;;;;;6035837;23;95378;-67
2022/01/30 07:39:28;;;;;;;21.30;4.63;;;6.80;74.80;;;;;;6037508;23;95129;-67
2022/01/30 07:41:55;;;;;;;27.20;6.05;;;6.70;73.70;;;;;;6037602;23;92431;-67
2022/01/30 07:44:22;;;;;;;20.77;4.60;;;6.80;74.20;;;;;;6011279;23;92509;-66
2022/01/30 07:46:50;;;;;;;35.63;6.13;;;6.90;71.80;;;;;;6011468;23;93837;-67
2022/01/30 07:49:17;;;;;;;19.83;4.45;;;6.90;71.40;;;;;;6036119;23;114143;-67
2022/01/30 07:51:44;;;;;;;24.60;5.43;;;6.90;70.30;;;;;;6037789;23;92478;-67
2022/01/30 07:54:11;;;;;;;21.85;4.60;;;6.90;69.00;;;;;;6012122;23;91810;-66
2022/01/30 07:56:38;;;;;;;20.92;5.25;;;7.00;68.50;;;;;;6037340;23;93015;-67
2022/01/30 07:59:08;;;;;;;28.38;4.78;;;7.00;68.10;;;;;;6036655;23;93739;-67
2022/01/30 08:01:36;;;;;;;21.73;4.50;;;7.00;67.80;;;;;;6036144;23;94772;-67
2022/01/30 08:04:06;;;;;;;21.98;4.78;;;7.00;68.60;;;;;;6037249;23;92471;-67
2022/01/30 08:06:36;;;;;;;27.73;5.47;;;7.10;67.50;;;;;;6011019;23;94056;-67
2022/01/30 08:09:03;;;;;;;25.77;5.15;;;7.20;67.80;;;;;;6037145;23;92765;-67
2022/01/30 08:11:30;;;;;;;22.88;5.10;;;7.20;68.30;;;;;;6037004;23;96076;-67
2022/01/30 08:13:57;;;;;;;21.38;4.40;;;7.20;69.30;;;;;;6037637;23;92317;-67
2022/01/30 08:16:27;;;;;;;24.05;5.60;;;7.20;67.80;;;;;;6036989;23;92914;-67
2022/01/30 08:18:54;;;;;;;20.38;4.60;;;7.20;67.60;;;;;;6037506;23;92675;-67
2022/01/30 08:21:22;;;;;;;27.52;5.38;;;7.20;66.70;;;;;;6011517;23;92378;-67
2022/01/30 08:23:50;;;;;;;28.10;5.78;;;7.20;67.30;;;;;;6036971;23;98101;-67
2022/01/30 08:26:17;;;;;;;27.90;5.57;;;7.20;68.40;;;;;;6035194;23;95317;-67
2022/01/30 08:28:44;;;;;;;30.10;5.85;;;7.30;67.80;;;;;;6036984;23;95181;-67
2022/01/30 08:31:11;;;;;;;23.42;5.22;;;7.40;66.40;;;;;;6036909;23;92340;-67
2022/01/30 08:33:39;;;;;;;25.88;4.63;;;7.50;67.80;;;;;;6037222;23;92396;-67
2022/01/30 08:36:06;;;;;;;38.75;6.78;;;7.50;66.40;;;;;;6036893;23;93205;-67
2022/01/30 08:38:33;;;;;;;32.13;6.20;;;7.60;67.50;;;;;;6059627;23;92919;-67
2022/01/30 08:41:00;;;;;;;19.05;5.57;;;7.60;66.30;;;;;;6036866;23;98743;-67
2022/01/30 08:43:28;;;;;;;33.05;5.82;;;7.60;66.40;;;;;;6037500;23;92049;-67
2022/01/30 08:45:55;;;;;;;35.17;6.30;;;7.60;67.00;;;;;;6036640;23;95353;-67
2022/01/30 08:48:22;;;;;;;24.92;6.25;;;7.60;67.40;;;;;;6036768;23;92678;-67
2022/01/30 08:50:51;;;;;;;28.13;5.68;;;7.60;68.10;;;;;;6010037;23;94839;-67
2022/01/30 08:53:17;;;;;;;38.45;6.18;;;7.70;68.00;;;;;;6010481;23;95441;-67
2022/01/30 08:55:45;;;;;;;28.73;6.75;;;7.80;67.60;;;;;;6036959;23;93024;-67
2022/01/30 08:58:13;;;;;;;38.75;7.00;;;7.80;67.50;;;;;;6036828;23;92843;-67
2022/01/30 09:00:42;;;;;;;36.33;8.05;;;7.70;68.00;;;;;;6036674;23;92358;-67
2022/01/30 09:03:10;;;;;;;24.00;6.22;;;7.70;69.10;;;;;;6037103;23;92492;-67
2022/01/30 09:05:38;;;;;;;23.60;7.45;;;7.60;67.70;;;;;;6011266;23;92829;-67
2022/01/30 09:08:07;;;;;;;25.55;5.57;;;7.50;67.10;;;;;;6037206;23;92671;-67
2022/01/30 09:10:38;;;;;;;29.67;5.47;;;7.70;65.90;;;;;;6010702;23;92363;-67
2022/01/30 09:13:06;;;;;;;31.42;6.68;;;7.70;66.20;;;;;;6036963;23;92461;-67
2022/01/30 09:15:38;;;;;;;28.48;6.18;;;7.80;67.00;;;;;;6009712;23;96568;-67
2022/01/30 09:18:09;;;;;;;33.80;6.07;;;7.90;67.10;;;;;;6036750;23;95100;-67
2022/01/30 09:20:38;;;;;;;37.42;6.22;;;8.00;66.60;;;;;;6036980;23;92653;-67
2022/01/30 09:23:05;;;;;;;28.88;6.47;;;8.10;65.20;;;;;;6036667;23;101110;-67
2022/01/30 09:25:33;;;;;;;30.30;5.18;;;8.20;66.20;;;;;;6011023;23;94821;-67
2022/01/30 09:28:00;;;;;;;31.50;5.88;;;8.10;65.20;;;;;;6036958;23;92870;-67
2022/01/30 09:30:27;;;;;;;33.63;6.93;;;8.10;63.80;;;;;;6036852;23;92837;-69
2022/01/30 09:32:54;;;;;;;28.73;5.68;;;8.00;64.70;;;;;;6037624;23;91724;-69
2022/01/30 09:35:21;;;;;;;27.92;4.82;;;8.00;63.90;;;;;;6036602;23;93273;-69
2022/01/30 09:37:48;;;;;;;26.35;5.32;;;7.90;65.30;;;;;;6036766;23;92414;-69
2022/01/30 09:40:17;;;;;;;22.02;5.03;;;7.90;65.30;;;;;;6009149;23;94787;-69
2022/01/30 09:42:45;;;;;;;26.67;4.85;;;8.00;65.20;;;;;;6011090;23;92431;-69
2022/01/30 09:45:14;;;;;;;30.67;5.85;;;8.00;64.10;;;;;;6036695;23;93023;-69
2022/01/30 09:47:42;;;;;;;38.03;6.53;;;8.00;66.00;;;;;;6036373;23;92870;-69
2022/01/30 09:50:10;;;;;;;28.52;6.32;;;8.10;64.90;;;;;;6037190;23;92389;-67
2022/01/30 09:52:37;;;;;;;35.67;5.30;;;8.00;65.40;;;;;;6036842;23;92422;-67
2022/01/30 09:55:08;;;;;;;24.05;6.13;;;8.10;66.00;;;;;;6036802;23;93103;-67
2022/01/30 09:57:36;;;;;;;30.27;7.18;;;8.10;64.70;;;;;;6036614;23;102400;-67
2022/01/30 10:00:07;;;;;;;38.28;7.60;;;8.10;64.90;;;;;;6036267;23;92307;-69
2022/01/30 10:02:34;;;;;;;31.15;7.55;;;8.10;63.60;;;;;;6036509;23;92516;-69
2022/01/30 10:05:03;;;;;;;26.77;6.22;;;8.20;64.40;;;;;;6035052;23;95350;-70
2022/01/30 10:07:46;;;;;;;27.45;5.75;;;8.10;63.90;;;;;;6036107;23;95138;-69
2022/01/30 10:10:17;;;;;;;31.27;5.60;;;8.20;63.10;;;;;;6036984;23;92359;-70
2022/01/30 10:13:03;;;;;;;30.88;6.78;;;8.20;62.80;;;;;;6010927;23;92513;-69
2022/01/30 10:15:30;;;;;;;16.15;6.00;;;8.20;62.70;;;;;;6059184;23;94034;-69
2022/01/30 10:17:57;;;;;;;33.92;6.05;;;8.20;61.70;;;;;;6036571;23;92620;-69
2022/01/30 10:20:37;;;;;;;17.25;4.22;;;8.30;63.00;;;;;;6036651;23;92323;-69
2022/01/30 10:23:09;;;;;;;24.25;5.15;;;8.30;62.30;;;;;;6037241;23;91685;-70
2022/01/30 10:25:37;;;;;;;20.40;4.75;;;8.30;63.10;;;;;;6036082;23;95593;-69
2022/01/30 10:28:05;;;;;;;20.58;5.60;;;8.30;60.90;;;;;;6036270;23;92850;-70
2022/01/30 10:30:42;;;;;;;27.13;6.13;;;8.40;61.40;;;;;;6034946;23;94731;-69
2022/01/30 10:33:12;;;;;;;23.13;7.15;;;8.50;61.00;;;;;;6036653;23;92407;-69
2022/01/30 10:35:56;;;;;;;21.60;4.38;;;8.40;61.80;;;;;;6035914;23;100587;-69
2022/01/30 10:38:37;;;;;;;26.08;5.95;;;8.50;61.20;;;;;;6036273;23;92823;-70
2022/01/30 10:41:16;;;;;;;27.52;6.03;;;8.50;62.20;;;;;;6010751;23;92418;-70
2022/01/30 10:43:55;;;;;;;25.15;4.65;;;8.50;61.40;;;;;;6036237;23;92423;-69
2022/01/30 10:46:28;;;;;;;22.90;5.82;;;8.60;61.40;;;;;;6036274;23;94231;-67
2022/01/30 10:49:00;;;;;;;24.50;6.18;;;8.50;61.00;;;;;;6037026;23;92710;-67
2022/01/30 10:51:30;;;;;;;19.83;5.60;;;8.50;61.30;;;;;;6010342;23;92442;-67
2022/01/30 10:54:03;;;;;;;27.85;6.68;;;8.50;61.30;;;;;;6010740;23;92799;-68
2022/01/30 10:56:31;;;;;;;25.65;7.30;;;8.50;61.20;;;;;;6008600;23;96733;-67
2022/01/30 10:59:08;;;;;;;33.20;6.80;;;8.50;60.60;;;;;;6035828;23;96192;-67
2022/01/30 11:01:39;;;;;;;21.92;5.55;;;8.60;62.50;;;;;;6036104;23;92648;-67
2022/01/30 11:04:07;;;;;;;32.97;5.78;;;8.60;61.40;;;;;;6036583;23;92311;-67
2022/01/30 11:06:39;;;;;;;24.17;5.40;;;8.70;62.20;;;;;;6010334;23;93013;-67
2022/01/30 11:09:11;;;;;;;36.25;6.45;;;8.70;63.60;;;;;;6036211;23;92861;-68
2022/01/30 11:11:46;;;;;;;19.23;4.03;;;8.70;63.40;;;;;;6058631;23;92436;-67
2022/01/30 11:14:16;;;;;;;20.55;4.25;;;8.60;61.80;;;;;;6036767;23;91687;-67
2022/01/30 11:17:03;;;;;;;29.92;5.57;;;8.60;62.00;;;;;;6035898;23;93058;-67
2022/01/30 11:19:33;;;;;;;28.70;6.50;;;8.60;61.90;;;;;;6036168;23;94175;-67
2022/01/30 11:22:05;;;;;;;22.95;5.28;;;8.60;60.90;;;;;;6034555;23;94973;-67
2022/01/30 11:24:44;;;;;;;23.65;4.53;;;8.50;59.60;;;;;;6036306;23;92322;-67
2022/01/30 11:27:12;;;;;;;33.03;6.35;;;8.50;59.70;;;;;;6035898;23;92918;-67
2022/01/30 11:29:39;;;;;;;21.95;5.32;;;8.50;60.60;;;;;;6036026;23;92909;-67
2022/01/30 11:32:07;;;;;;;28.90;6.07;;;8.50;61.40;;;;;;6037613;23;92512;-67
2022/01/30 11:34:39;;;;;;;23.92;4.93;;;8.60;61.80;;;;;;6037217;23;92406;-67
2022/01/30 11:37:07;;;;;;;26.05;5.35;;;8.80;60.70;;;;;;6035684;23;94301;-68
2022/01/30 11:39:37;;;;;;;16.77;4.20;;;8.70;59.30;;;;;;6037353;23;92663;-67
2022/01/30 11:42:18;;;;;;;23.85;5.10;;;8.80;58.30;;;;;;6037116;23;96723;-67
2022/01/30 11:44:47;;;;;;;20.50;4.75;;;8.90;59.10;;;;;;6011416;23;93381;-67
2022/01/30 11:47:14;;;;;;;29.42;5.18;;;8.80;59.80;;;;;;6035812;23;95466;-67
2022/01/30 11:49:49;;;;;;;26.90;5.30;;;8.90;61.60;;;;;;6036860;23;95201;-67
2022/01/30 11:52:18;;;;;;;29.60;5.65;;;9.10;60.00;;;;;;6037634;23;92426;-67
2022/01/30 11:54:51;;;;;;;16.25;4.10;;;9.10;59.30;;;;;;6011257;23;92441;-68
2022/01/30 11:57:20;;;;;;;24.83;4.40;;;9.10;58.10;;;;;;6037234;23;92942;-67
2022/01/30 11:59:48;;;;;;;21.38;4.28;;;9.00;58.70;;;;;;6036713;23;92779;-67
2022/01/30 12:02:25;;;;;;;23.30;5.60;;;9.00;59.90;;;;;;6037433;23;92307;-67
2022/01/30 12:04:57;;;;;;;26.67;5.38;;;9.10;60.60;;;;;;6011877;23;91736;-67
2022/01/30 12:07:34;;;;;;;31.00;5.50;;;9.20;60.00;;;;;;6037163;23;93614;-67
2022/01/30 12:10:20;;;;;;;19.17;4.82;;;9.10;58.80;;;;;;6036793;23;93707;-67
2022/01/30 12:12:59;;;;;;;15.77;4.88;;;9.20;60.80;;;;;;6035549;23;95263;-68
2022/01/30 12:15:41;;;;;;;25.77;5.18;;;9.20;60.20;;;;;;6011290;23;92477;-67
2022/01/30 12:18:17;;;;;;;28.90;5.75;;;9.30;59.60;;;;;;6011941;23;93161;-67
2022/01/30 12:21:13;;;;;;;15.48;4.22;;;9.20;58.90;;;;;;6037013;23;92860;-69
2022/01/30 12:23:43;;;;;;;26.58;5.93;;;9.30;59.40;;;;;;6037174;23;92392;-69
2022/01/30 12:26:14;;;;;;;26.17;5.35;;;9.30;59.70;;;;;;6037413;23;92442;-69
2022/01/30 12:28:50;;;;;;;31.88;6.65;;;9.40;59.00;;;;;;6037243;23;93564;-67
2022/01/30 12:31:26;;;;;;;22.27;5.45;;;9.50;60.90;;;;;;6011904;23;94018;-68
2022/01/30 12:34:04;;;;;;;27.48;5.13;;;9.60;59.80;;;;;;6036489;23;92834;-67
2022/01/30 12:36:37;;;;;;;22.95;5.30;;;9.70;61.20;;;;;;6037385;23;92333;-67
2022/01/30 12:39:16;;;;;;;33.85;8.35;;;9.80;60.60;;;;;;6009178;23;96462;-67
2022/01/30 12:41:43;;;;;;;36.40;9.30;;;9.80;58.80;;;;;;6035950;23;95100;-67
2022/01/30 12:44:12;;;;;;;29.55;7.03;;;9.80;60.00;;;;;;6037592;23;92473;-68
2022/01/30 12:46:46;;;;;;;31.15;6.57;;;9.90;59.30;;;;;;6037075;23;92446;-68
2022/01/30 12:49:21;;;;;;;26.85;6.10;;;9.90;60.00;;;;;;6037176;23;93145;-67
2022/01/30 12:51:56;;;;;;;29.27;5.10;;;9.90;60.00;;;;;;6036636;23;92803;-67
2022/01/30 12:54:29;;;;;;;26.70;5.15;;;10.00;60.00;;;;;;6011184;23;92428;-67
2022/01/30 12:56:56;;;;;;;22.73;4.83;;;9.90;59.50;;;;;;6059852;23;91635;-67
2022/01/30 12:59:26;;;;;;;20.67;5.47;;;9.80;58.80;;;;;;6036277;23;100018;-67
2022/01/30 13:02:05;;;;;;;22.52;4.90;;;9.80;60.00;;;;;;6010926;23;93924;-67
2022/01/30 13:04:32;;;;;;;16.58;5.05;;;9.70;60.30;;;;;;6058081;23;95094;-68
2022/01/30 13:06:59;;;;;;;29.45;5.63;;;9.60;61.40;;;;;;6037015;23;92890;-67
2022/01/30 13:09:30;;;;;;;27.85;5.65;;;9.50;62.60;;;;;;6037005;23;92926;-67
2022/01/30 13:12:12;;;;;;;36.20;6.72;;;9.50;63.10;;;;;;6036826;23;92676;-70
2022/01/30 13:14:43;;;;;;;24.48;4.15;;;9.50;63.40;;;;;;6037610;23;92914;-70
2022/01/30 13:17:11;;;;;;;23.05;5.45;;;9.40;60.90;;;;;;6036872;23;92417;-69
2022/01/30 13:19:42;;;;;;;22.42;4.68;;;9.30;58.90;;;;;;6036940;23;93090;-70
2022/01/30 13:22:11;;;;;;;27.52;5.60;;;9.20;60.00;;;;;;6011720;23;92879;-70
2022/01/30 13:24:39;;;;;;;24.33;5.28;;;9.00;60.50;;;;;;6037282;23;92909;-69
2022/01/30 13:27:08;;;;;;;28.00;5.25;;;8.90;61.10;;;;;;6036641;23;92546;-69
2022/01/30 13:29:37;;;;;;;29.58;5.15;;;8.80;60.30;;;;;;6034680;23;110888;-69
2022/01/30 13:32:11;;;;;;;25.92;4.65;;;8.80;62.00;;;;;;6036418;23;95092;-69
2022/01/30 13:34:40;;;;;;;20.98;4.75;;;8.80;61.10;;;;;;6037357;23;92849;-68
2022/01/30 13:37:15;;;;;;;28.77;6.38;;;8.80;60.80;;;;;;6036865;23;92778;-67
2022/01/30 13:39:51;;;;;;;25.20;6.00;;;9.00;61.10;;;;;;6036982;23;92291;-68
2022/01/30 13:48:02;;;;;;;23.60;4.97;;;9.60;59.60;;;;;;6037434;23;92163;-69
2022/01/30 13:50:43;;;;;;;24.73;4.40;;;9.80;60.20;;;;;;6036741;23;92820;-67
2022/01/30 13:53:13;;;;;;;22.40;5.00;;;9.80;58.40;;;;;;6036216;23;92707;-67
2022/01/30 13:56:07;;;;;;;23.23;5.15;;;9.90;58.00;;;;;;6009411;23;94838;-69
2022/01/30 13:58:37;;;;;;;16.48;4.20;;;9.90;57.30;;;;;;6036949;23;92415;-67
2022/01/30 14:01:08;;;;;;;21.83;4.65;;;9.80;56.90;;;;;;6058358;23;94079;-67
2022/01/30 14:03:37;;;;;;;16.77;4.72;;;9.80;56.90;;;;;;6010983;23;94120;-69
2022/01/30 14:06:18;;;;;;;19.17;4.68;;;9.70;56.20;;;;;;6036654;23;92363;-67
2022/01/30 14:09:12;;;;;;;23.70;4.40;;;9.80;57.10;;;;;;6036737;23;92415;-69
2022/01/30 14:11:40;;;;;;;19.70;4.53;;;9.70;57.20;;;;;;6009737;23;95830;-69
2022/01/30 14:14:15;;;;;;;25.38;5.53;;;9.70;57.90;;;;;;6036480;23;98546;-69
2022/01/30 14:16:48;;;;;;;22.73;4.63;;;9.70;58.40;;;;;;6037223;23;92472;-69